Time;durP1;ratioP1;P1;durP2;ratioP2;P2;SDS_P1;SDS_P2;PMS_P1;PMS_P2;Temp;Humidity;BMP_temperature;BMP_pressure;BME280_temperature;BME280_humidity;BME280_pressure;Samples;Min_cycle;Max_cycle;Signal;HPM_P1;HPM_P2
2022/07/14 00:01:09;;;;;;;5.35;2.30;;;26.10;42.10;;;;;;5025721;28;20112;-73
2022/07/14 00:03:35;;;;;;;9.73;2.05;;;26.00;42.30;;;;;;5021568;28;20295;-73
2022/07/14 00:06:02;;;;;;;12.65;2.13;;;26.00;42.30;;;;;;5022666;28;20037;-73
2022/07/14 00:08:28;;;;;;;6.95;2.03;;;25.90;42.30;;;;;;5019874;28;20030;-73
2022/07/14 00:10:53;;;;;;;8.48;2.10;;;25.80;43.10;;;;;;5026594;28;20840;-73
2022/07/14 00:13:19;;;;;;;8.93;1.90;;;25.80;42.70;;;;;;5022300;28;20088;-73
2022/07/14 00:15:45;;;;;;;6.10;2.10;;;25.80;42.80;;;;;;5019225;28;20041;-73
2022/07/14 00:18:11;;;;;;;7.85;2.00;;;25.70;42.90;;;;;;5024544;28;20584;-73
2022/07/14 00:20:37;;;;;;;6.95;2.30;;;25.70;43.10;;;;;;5025887;28;20350;-73
2022/07/14 00:23:02;;;;;;;5.95;2.03;;;25.60;43.20;;;;;;5028200;28;20109;-73
2022/07/14 00:25:28;;;;;;;6.13;2.30;;;25.60;43.40;;;;;;5023594;28;20017;-73
2022/07/14 00:27:54;;;;;;;9.27;2.00;;;25.50;43.50;;;;;;5018611;28;20033;-73
2022/07/14 00:30:21;;;;;;;5.78;1.95;;;25.50;43.60;;;;;;5027935;28;20018;-73
2022/07/14 00:32:47;;;;;;;6.13;2.00;;;25.40;43.60;;;;;;5021151;28;20513;-73
2022/07/14 00:35:13;;;;;;;6.80;2.00;;;25.40;43.60;;;;;;5024279;28;20497;-73
2022/07/14 00:37:39;;;;;;;7.15;1.98;;;25.40;43.80;;;;;;5029276;28;20032;-73
2022/07/14 00:40:06;;;;;;;5.97;1.92;;;25.30;43.90;;;;;;5023083;28;20025;-73
2022/07/14 00:42:34;;;;;;;9.15;2.97;;;25.30;44.10;;;;;;5026301;28;20428;-73
2022/07/14 00:45:11;;;;;;;4.97;2.20;;;25.20;44.30;;;;;;5020861;28;20817;-73
2022/07/14 00:47:37;;;;;;;7.20;2.00;;;25.20;44.40;;;;;;5024035;28;20468;-72
2022/07/14 00:50:05;;;;;;;5.20;1.88;;;25.10;44.60;;;;;;5034558;28;20516;-73
2022/07/14 00:52:31;;;;;;;5.35;2.00;;;25.10;44.80;;;;;;5028789;28;20040;-72
2022/07/14 00:54:58;;;;;;;5.50;1.98;;;25.10;44.90;;;;;;5027084;28;20808;-73
2022/07/14 00:57:24;;;;;;;5.10;1.83;;;25.10;45.10;;;;;;5024924;28;20032;-73
2022/07/14 00:59:50;;;;;;;9.35;2.13;;;25.00;45.20;;;;;;5033952;28;20021;-73
2022/07/14 01:02:18;;;;;;;6.22;2.03;;;25.00;45.30;;;;;;5037743;28;20388;-73
2022/07/14 01:04:45;;;;;;;5.15;1.85;;;25.00;45.50;;;;;;5021585;28;20033;-73
2022/07/14 01:07:12;;;;;;;5.82;1.90;;;25.00;45.60;;;;;;5023834;28;20048;-73
2022/07/14 01:09:39;;;;;;;8.90;2.00;;;24.90;45.70;;;;;;5026461;28;20506;-73
2022/07/14 01:12:05;;;;;;;5.50;1.95;;;24.80;45.90;;;;;;5026300;28;20087;-73
2022/07/14 01:14:31;;;;;;;4.47;1.83;;;24.80;46.00;;;;;;5013385;28;20123;-73
2022/07/14 01:16:57;;;;;;;9.57;2.20;;;24.80;46.20;;;;;;5028537;28;20065;-73
2022/07/14 01:19:24;;;;;;;6.22;1.90;;;24.70;46.40;;;;;;5039579;28;20492;-73
2022/07/14 01:21:51;;;;;;;7.45;2.30;;;24.70;46.60;;;;;;5030148;28;20063;-73
2022/07/14 01:24:17;;;;;;;4.03;2.13;;;24.60;46.70;;;;;;5023027;28;20132;-73
2022/07/14 01:26:43;;;;;;;6.55;2.03;;;24.60;47.00;;;;;;5026419;28;20041;-72
2022/07/14 01:29:09;;;;;;;5.28;2.20;;;24.60;47.10;;;;;;5028040;28;20025;-73
2022/07/14 01:31:34;;;;;;;5.28;2.20;;;24.60;47.40;;;;;;5027708;28;20055;-73
2022/07/14 01:34:00;;;;;;;5.80;2.53;;;24.50;47.50;;;;;;5029612;28;20048;-73
2022/07/14 01:36:26;;;;;;;6.32;2.35;;;24.50;47.70;;;;;;5031881;28;20056;-73
2022/07/14 01:38:52;;;;;;;6.60;2.33;;;24.40;47.90;;;;;;5025564;28;20120;-72
2022/07/14 01:41:20;;;;;;;7.07;2.35;;;24.40;48.20;;;;;;5031289;28;20031;-73
2022/07/14 01:43:46;;;;;;;4.85;2.28;;;24.40;48.80;;;;;;5022673;28;20028;-73
2022/07/14 01:46:12;;;;;;;5.13;2.30;;;24.30;49.90;;;;;;5035845;28;20032;-73
2022/07/14 01:48:38;;;;;;;5.00;2.60;;;24.30;49.30;;;;;;5031806;28;20440;-73
2022/07/14 01:51:03;;;;;;;6.20;2.50;;;24.20;49.60;;;;;;5034961;28;20045;-73
2022/07/14 01:53:29;;;;;;;7.55;2.50;;;24.20;49.70;;;;;;5029481;28;20041;-73
2022/07/14 01:55:55;;;;;;;6.15;2.50;;;24.20;49.90;;;;;;5030613;28;20037;-73
2022/07/14 01:58:21;;;;;;;6.75;2.55;;;24.10;50.20;;;;;;5021752;28;20756;-73
2022/07/14 02:01:39;;;;;;;7.75;2.75;;;24.10;50.20;;;;;;5037710;28;20025;-73
2022/07/14 02:03:32;;;;;;;6.68;2.78;;;24.10;50.40;;;;;;5023769;28;20038;-73
2022/07/14 02:05:58;;;;;;;10.18;2.83;;;24.10;50.70;;;;;;5026596;28;20018;-73
2022/07/14 02:08:23;;;;;;;6.72;3.00;;;24.00;51.00;;;;;;5033373;28;20029;-73
2022/07/14 02:13:33;;;;;;;10.75;3.30;;;24.00;51.40;;;;;;5018257;28;20072;-73
2022/07/14 02:15:59;;;;;;;10.88;5.30;;;24.00;51.70;;;;;;5027261;28;20025;-73
2022/07/14 02:18:24;;;;;;;23.90;14.45;;;24.00;51.90;;;;;;5034041;28;20057;-73
2022/07/14 02:20:50;;;;;;;42.42;20.05;;;23.90;51.90;;;;;;5022398;28;20018;-73
2022/07/14 02:23:16;;;;;;;85.45;40.70;;;23.90;52.20;;;;;;5027062;28;20451;-73
2022/07/14 02:25:42;;;;;;;22.48;11.68;;;23.90;52.30;;;;;;5019804;28;20495;-73
2022/07/14 02:28:07;;;;;;;12.23;6.57;;;23.90;52.60;;;;;;5032874;28;20036;-72
2022/07/14 02:30:33;;;;;;;11.60;7.05;;;23.90;52.70;;;;;;5025849;28;20018;-73
2022/07/14 02:32:59;;;;;;;23.15;15.95;;;23.90;52.80;;;;;;5038615;28;20120;-73
2022/07/14 02:35:24;;;;;;;32.25;21.67;;;23.90;53.00;;;;;;5030516;28;20037;-73
2022/07/14 02:37:50;;;;;;;10.02;5.38;;;23.80;53.10;;;;;;5021582;28;20060;-73
2022/07/14 02:40:16;;;;;;;18.27;12.23;;;23.80;53.40;;;;;;5019488;28;20021;-73
2022/07/14 02:42:41;;;;;;;14.20;8.63;;;23.80;53.80;;;;;;5023288;28;20715;-73
2022/07/14 02:45:08;;;;;;;7.93;4.72;;;23.80;53.80;;;;;;5029540;28;20497;-73
2022/07/14 02:47:33;;;;;;;6.80;3.83;;;23.80;53.70;;;;;;5035318;28;20469;-73
2022/07/14 02:49:59;;;;;;;9.00;4.40;;;23.70;53.90;;;;;;5033231;28;20041;-73
2022/07/14 02:52:25;;;;;;;8.32;5.07;;;23.70;53.80;;;;;;5022815;28;20052;-73
2022/07/14 02:54:50;;;;;;;8.93;5.30;;;23.60;53.50;;;;;;5019093;28;20071;-74
2022/07/14 02:57:16;;;;;;;9.30;4.90;;;23.50;53.50;;;;;;5024863;28;20137;-73
2022/07/14 02:59:42;;;;;;;7.50;4.07;;;23.40;53.80;;;;;;5030523;28;20503;-73
2022/07/14 03:02:09;;;;;;;9.13;4.25;;;23.40;54.10;;;;;;5030942;28;20104;-73
2022/07/14 03:04:36;;;;;;;8.02;4.32;;;23.30;54.40;;;;;;5017274;28;20470;-73
2022/07/14 03:07:01;;;;;;;15.48;9.40;;;23.30;54.20;;;;;;5029625;28;20112;-73
2022/07/14 03:09:27;;;;;;;8.07;4.60;;;23.30;54.10;;;;;;5020209;28;20117;-73
2022/07/14 03:11:53;;;;;;;7.32;4.10;;;23.20;54.40;;;;;;5015783;28;20038;-73
2022/07/14 03:14:19;;;;;;;8.32;4.63;;;23.20;54.60;;;;;;5017507;28;20121;-73
2022/07/14 03:16:44;;;;;;;9.38;5.30;;;23.20;54.90;;;;;;5013209;28;20105;-73
2022/07/14 03:19:10;;;;;;;13.25;6.90;;;23.10;55.10;;;;;;5025878;28;20089;-73
2022/07/14 03:21:36;;;;;;;9.63;5.82;;;23.00;55.40;;;;;;5036853;28;20072;-73
2022/07/14 03:24:02;;;;;;;8.73;5.50;;;23.00;55.50;;;;;;5029794;28;20034;-73
2022/07/14 03:26:30;;;;;;;8.73;5.18;;;23.00;55.70;;;;;;5024558;28;20037;-74
2022/07/14 03:28:56;;;;;;;13.52;7.05;;;22.90;55.60;;;;;;5027278;28;20057;-73
2022/07/14 03:31:21;;;;;;;10.05;5.60;;;22.90;55.90;;;;;;5012680;28;20037;-73
2022/07/14 03:33:47;;;;;;;10.10;5.35;;;22.90;56.20;;;;;;5022827;28;20091;-73
2022/07/14 03:36:13;;;;;;;8.90;4.93;;;22.90;56.30;;;;;;5034350;28;20551;-72
2022/07/14 03:38:38;;;;;;;9.43;4.90;;;22.80;56.60;;;;;;5009105;28;20484;-73
2022/07/14 03:41:05;;;;;;;7.75;4.53;;;22.80;56.50;;;;;;5032247;28;20021;-73
2022/07/14 03:43:31;;;;;;;9.10;4.70;;;22.80;56.80;;;;;;5024972;28;20048;-73
2022/07/14 03:45:57;;;;;;;7.30;4.03;;;22.80;57.00;;;;;;5024551;28;20025;-73
2022/07/14 03:48:23;;;;;;;11.82;4.28;;;22.80;56.70;;;;;;5029514;28;20033;-73
2022/07/14 03:50:49;;;;;;;11.98;4.63;;;22.70;56.40;;;;;;5028980;28;20072;-72
2022/07/14 03:53:14;;;;;;;10.57;4.50;;;22.60;56.40;;;;;;5031299;28;20131;-73
2022/07/14 03:55:42;;;;;;;9.57;4.70;;;22.50;56.10;;;;;;5023181;28;20088;-73
2022/07/14 03:58:08;;;;;;;8.50;4.40;;;22.50;56.20;;;;;;5030597;28;20037;-72
2022/07/14 04:00:34;;;;;;;9.90;4.32;;;22.40;56.40;;;;;;5027225;28;20083;-73
2022/07/14 04:02:59;;;;;;;9.00;4.18;;;22.40;56.20;;;;;;5027422;28;20034;-73
2022/07/14 04:05:25;;;;;;;7.10;4.30;;;22.30;56.00;;;;;;5025960;28;20079;-73
2022/07/14 04:07:51;;;;;;;11.35;6.15;;;22.30;56.20;;;;;;5026679;28;20032;-73
2022/07/14 04:10:17;;;;;;;9.65;5.53;;;22.20;57.20;;;;;;5022294;28;20025;-73
2022/07/14 04:12:43;;;;;;;8.93;5.30;;;22.20;57.50;;;;;;5035953;28;20512;-73
2022/07/14 04:15:10;;;;;;;8.13;4.82;;;22.20;57.80;;;;;;5022907;28;20033;-73
2022/07/14 04:17:35;;;;;;;9.05;4.85;;;22.20;57.70;;;;;;5027441;28;20382;-73
2022/07/14 04:20:01;;;;;;;9.77;5.07;;;22.20;57.10;;;;;;5028914;28;20048;-73
2022/07/14 04:22:27;;;;;;;8.75;5.47;;;22.10;57.30;;;;;;5023050;28;20029;-73
2022/07/14 04:24:53;;;;;;;7.50;5.10;;;22.10;57.80;;;;;;5024293;28;20096;-73
2022/07/14 04:27:19;;;;;;;10.57;4.97;;;22.00;58.00;;;;;;5026815;28;20721;-73
2022/07/14 04:29:45;;;;;;;8.90;5.60;;;22.00;58.00;;;;;;5030975;28;20456;-73
2022/07/14 04:32:11;;;;;;;10.35;6.13;;;21.90;58.10;;;;;;5029432;28;20115;-73
2022/07/14 04:34:37;;;;;;;12.60;6.53;;;21.90;58.50;;;;;;5018289;28;20041;-73
2022/07/14 04:37:03;;;;;;;10.77;6.80;;;21.90;58.70;;;;;;5023160;28;20105;-72
2022/07/14 04:39:29;;;;;;;14.30;7.13;;;21.90;58.80;;;;;;5034174;28;20029;-72
2022/07/14 04:41:54;;;;;;;13.73;6.65;;;21.90;59.00;;;;;;5030937;28;20485;-73
2022/07/14 04:44:20;;;;;;;16.52;7.40;;;21.90;59.00;;;;;;5029655;28;20116;-73
2022/07/14 04:46:46;;;;;;;15.27;6.97;;;21.90;59.10;;;;;;5026992;28;20503;-73
2022/07/14 04:52:01;;;;;;;13.75;7.35;;;21.90;58.60;;;;;;5027275;28;20052;-73
2022/07/14 04:54:28;;;;;;;16.00;8.40;;;21.90;59.10;;;;;;5027715;28;20030;-73
2022/07/14 04:56:54;;;;;;;11.60;8.25;;;21.90;59.60;;;;;;5016609;28;20408;-73
2022/07/14 04:59:19;;;;;;;10.07;6.95;;;21.90;60.20;;;;;;5041847;28;20036;-73
2022/07/14 05:01:45;;;;;;;11.38;7.60;;;21.90;60.40;;;;;;5027862;28;20106;-73
2022/07/14 05:04:11;;;;;;;13.55;7.95;;;21.90;60.40;;;;;;5019142;28;20033;-73
2022/07/14 05:06:36;;;;;;;13.90;8.27;;;21.90;60.70;;;;;;5026870;28;20514;-73
2022/07/14 05:09:03;;;;;;;12.73;8.32;;;21.90;60.90;;;;;;5029622;28;20027;-73
2022/07/14 05:11:28;;;;;;;12.25;9.25;;;21.90;61.20;;;;;;5028233;28;20033;-72
2022/07/14 05:13:54;;;;;;;12.45;8.38;;;22.00;62.00;;;;;;5019973;28;20496;-73
2022/07/14 05:16:20;;;;;;;12.00;8.63;;;22.00;62.50;;;;;;5025555;28;20033;-73
2022/07/14 05:18:46;;;;;;;12.82;9.02;;;22.00;62.80;;;;;;5024851;28;20033;-73
2022/07/14 05:21:12;;;;;;;15.93;9.98;;;22.10;63.10;;;;;;5029770;28;20484;-73
2022/07/14 05:23:38;;;;;;;12.18;9.13;;;22.10;63.70;;;;;;5027290;28;20029;-73
2022/07/14 05:26:10;;;;;;;15.95;9.43;;;22.20;63.90;;;;;;5028612;28;20033;-73
2022/07/14 05:28:36;;;;;;;18.08;9.15;;;22.20;64.60;;;;;;5029419;28;20101;-73
2022/07/14 05:31:01;;;;;;;15.52;10.30;;;22.30;65.00;;;;;;5028731;28;20416;-74
2022/07/14 05:33:27;;;;;;;14.50;8.63;;;22.40;65.40;;;;;;5026361;28;20025;-75
2022/07/14 05:35:55;;;;;;;15.98;9.65;;;22.40;65.60;;;;;;5028975;28;20029;-75
2022/07/14 05:38:21;;;;;;;15.50;9.65;;;22.50;65.90;;;;;;5026112;28;20033;-74
2022/07/14 05:40:47;;;;;;;16.38;8.82;;;22.50;65.80;;;;;;5026760;28;20112;-75
2022/07/14 05:43:14;;;;;;;14.63;9.68;;;22.60;66.00;;;;;;5027587;28;20053;-74
2022/07/14 05:45:39;;;;;;;15.48;9.10;;;22.70;66.10;;;;;;5025425;28;20091;-75
2022/07/14 05:48:05;;;;;;;13.95;9.18;;;22.80;66.50;;;;;;5029803;28;20026;-74
2022/07/14 05:50:31;;;;;;;12.98;8.35;;;22.80;66.30;;;;;;5027875;28;20050;-74
2022/07/14 05:52:57;;;;;;;14.70;8.02;;;22.90;66.10;;;;;;5040329;28;20060;-75
2022/07/14 05:55:23;;;;;;;13.25;7.82;;;23.00;66.10;;;;;;5025579;28;20128;-75
2022/07/14 05:57:49;;;;;;;16.67;7.05;;;23.00;66.00;;;;;;5020693;28;20037;-76
2022/07/14 06:00:15;;;;;;;13.07;7.60;;;23.10;65.90;;;;;;5024289;28;20026;-74
2022/07/14 06:02:44;;;;;;;11.90;7.40;;;23.20;65.80;;;;;;5029279;28;20037;-74
2022/07/14 06:05:10;;;;;;;13.35;7.20;;;23.20;65.80;;;;;;5029697;28;20037;-73
2022/07/14 06:07:39;;;;;;;12.07;6.90;;;23.30;65.70;;;;;;5025073;28;20021;-74
2022/07/14 06:10:09;;;;;;;12.70;6.93;;;23.40;65.60;;;;;;5016339;28;20095;-75
2022/07/14 06:12:37;;;;;;;13.57;6.60;;;23.50;65.40;;;;;;5020695;28;20099;-74
2022/07/14 06:15:07;;;;;;;16.40;7.35;;;23.60;65.20;;;;;;5023599;28;20025;-75
2022/07/14 06:17:34;;;;;;;10.25;7.20;;;23.70;65.00;;;;;;5025660;28;20060;-73
2022/07/14 06:20:06;;;;;;;12.52;7.82;;;23.70;64.80;;;;;;5029789;28;20092;-74
2022/07/14 06:22:37;;;;;;;11.30;6.57;;;23.90;64.60;;;;;;5021661;28;20041;-73
2022/07/14 06:25:08;;;;;;;10.57;6.13;;;23.90;64.30;;;;;;5024142;28;20541;-75
2022/07/14 06:27:34;;;;;;;10.60;5.82;;;24.00;64.00;;;;;;5023802;28;20037;-74
2022/07/14 06:30:04;;;;;;;10.85;5.13;;;24.10;63.50;;;;;;5025010;28;20065;-74
2022/07/14 06:32:30;;;;;;;10.40;4.57;;;24.20;63.10;;;;;;5027086;28;20112;-74
2022/07/14 06:34:55;;;;;;;10.68;5.00;;;24.40;63.60;;;;;;5018726;28;20680;-72
2022/07/14 06:37:21;;;;;;;9.82;4.80;;;24.50;62.10;;;;;;5028055;28;20501;-77
2022/07/14 06:39:47;;;;;;;9.90;4.20;;;24.70;61.70;;;;;;5025878;28;20018;-74
2022/07/14 06:42:13;;;;;;;11.32;4.50;;;24.80;61.20;;;;;;5022418;28;20033;-75
2022/07/14 06:44:39;;;;;;;6.45;3.97;;;25.00;60.70;;;;;;5023194;28;20034;-73
2022/07/14 06:47:05;;;;;;;8.68;3.80;;;25.10;59.90;;;;;;5025885;28;20455;-73
2022/07/14 06:49:31;;;;;;;7.78;3.63;;;25.40;59.00;;;;;;5033566;28;20559;-71
2022/07/14 06:51:57;;;;;;;8.07;3.47;;;25.60;58.30;;;;;;5023909;28;20729;-74
2022/07/14 06:54:23;;;;;;;8.20;3.60;;;25.90;57.40;;;;;;5022034;28;20041;-74
2022/07/14 06:56:49;;;;;;;6.78;3.05;;;26.50;55.50;;;;;;5029071;28;20033;-73
2022/07/14 06:59:14;;;;;;;7.28;3.28;;;27.20;53.20;;;;;;5032996;28;20510;-74
2022/07/14 07:01:40;;;;;;;6.22;2.90;;;28.40;49.00;;;;;;5022502;28;20033;-75
2022/07/14 07:04:06;;;;;;;7.28;2.72;;;29.00;46.50;;;;;;5023631;28;20486;-76
2022/07/14 07:06:44;;;;;;;6.13;2.60;;;29.80;43.60;;;;;;5019867;28;20025;-74
2022/07/14 07:09:14;;;;;;;8.70;2.65;;;30.50;41.80;;;;;;5021114;28;20044;-73
2022/07/14 07:11:41;;;;;;;;;;;31.00;40.40;;;;;;5019106;28;20034;-76
2022/07/14 07:14:07;;;;;;;6.57;2.33;;;31.90;38.60;;;;;;5022091;28;19920;-73
2022/07/14 07:16:32;;;;;;;6.13;2.25;;;32.70;36.70;;;;;;5022936;28;20033;-74
2022/07/14 07:18:58;;;;;;;7.60;2.42;;;33.20;35.20;;;;;;5021470;28;20032;-72
2022/07/14 07:21:24;;;;;;;6.47;2.40;;;33.60;33.90;;;;;;5023223;28;20029;-74
2022/07/14 07:23:50;;;;;;;6.30;2.35;;;34.20;32.50;;;;;;5022942;28;20669;-74
2022/07/14 07:26:18;;;;;;;8.30;2.42;;;34.50;31.70;;;;;;5014085;28;20100;-72
2022/07/14 07:28:44;;;;;;;5.50;1.85;;;34.00;32.50;;;;;;5018324;28;20025;-74
2022/07/14 07:31:10;;;;;;;6.55;2.03;;;34.50;31.80;;;;;;5015408;28;20022;-72
2022/07/14 07:33:36;;;;;;;5.35;1.80;;;34.80;31.00;;;;;;5020492;28;20430;-72
2022/07/14 07:36:02;;;;;;;7.72;2.10;;;35.00;31.00;;;;;;5020540;28;20025;-73
2022/07/14 07:38:28;;;;;;;6.97;2.00;;;35.10;30.30;;;;;;5025917;28;20271;-75
2022/07/14 07:40:54;;;;;;;5.88;2.00;;;34.90;29.90;;;;;;5025439;28;20064;-74
2022/07/14 07:43:21;;;;;;;5.30;1.80;;;34.60;30.10;;;;;;5023421;28;20063;-73
2022/07/14 07:45:48;;;;;;;5.65;2.17;;;34.90;29.60;;;;;;5020253;28;20071;-75
2022/07/14 07:48:16;;;;;;;9.70;1.95;;;35.30;29.10;;;;;;5026132;28;20574;-73
2022/07/14 07:50:44;;;;;;;6.05;1.90;;;35.50;28.60;;;;;;5019855;28;20042;-72
2022/07/14 07:53:10;;;;;;;5.78;1.92;;;35.30;28.50;;;;;;5024776;28;20049;-73
2022/07/14 07:55:36;;;;;;;6.03;1.80;;;34.90;29.10;;;;;;5019339;28;20026;-71
2022/07/14 08:01:03;;;;;;;6.50;2.08;;;34.10;30.20;;;;;;5017871;28;20026;-72
2022/07/14 08:03:29;;;;;;;6.68;1.60;;;33.70;31.00;;;;;;5028007;28;20049;-73
2022/07/14 08:05:55;;;;;;;5.75;2.35;;;33.40;31.30;;;;;;5025472;28;20079;-75
2022/07/14 08:08:21;;;;;;;7.82;2.40;;;33.20;31.30;;;;;;5013446;28;20037;-73
2022/07/14 08:10:47;;;;;;;6.55;1.70;;;33.10;31.40;;;;;;5018017;28;20024;-71
2022/07/14 08:13:13;;;;;;;5.57;1.70;;;33.00;30.20;;;;;;5019085;28;20049;-71
2022/07/14 08:15:39;;;;;;;10.18;1.70;;;32.80;31.00;;;;;;5019537;28;20497;-72
2022/07/14 08:18:07;;;;;;;10.52;1.70;;;32.80;31.60;;;;;;5021679;28;20041;-75
2022/07/14 08:20:33;;;;;;;6.63;1.70;;;32.70;31.70;;;;;;5022987;28;20472;-74
2022/07/14 08:22:59;;;;;;;7.50;1.90;;;32.70;31.60;;;;;;5028291;28;20630;-77
2022/07/14 08:25:25;;;;;;;7.93;1.73;;;32.70;31.60;;;;;;5028033;28;20036;-71
2022/07/14 08:27:51;;;;;;;5.65;1.70;;;32.60;31.60;;;;;;5023124;28;20029;-72
2022/07/14 08:30:17;;;;;;;7.03;1.52;;;32.60;31.40;;;;;;5028951;28;20025;-70
2022/07/14 08:32:50;;;;;;;6.30;1.60;;;32.60;31.50;;;;;;5024884;28;20049;-72
2022/07/14 08:35:18;;;;;;;8.10;1.60;;;32.60;31.30;;;;;;5028615;28;20049;-72
2022/07/14 08:37:45;;;;;;;6.38;1.67;;;32.60;31.30;;;;;;5022172;28;20034;-69
2022/07/14 08:40:13;;;;;;;7.55;1.70;;;32.50;31.50;;;;;;5023588;28;20032;-71
2022/07/14 08:42:44;;;;;;;9.13;1.60;;;32.50;31.80;;;;;;5025329;28;20033;-73
2022/07/14 08:45:12;;;;;;;9.82;1.60;;;32.50;32.10;;;;;;5024440;28;20025;-73
2022/07/14 08:47:38;;;;;;;7.40;1.83;;;32.50;32.20;;;;;;5025550;28;20022;-73
2022/07/14 08:50:07;;;;;;;7.47;1.70;;;32.60;32.30;;;;;;5032492;28;20053;-72
2022/07/14 08:52:33;;;;;;;4.35;1.48;;;32.90;32.00;;;;;;5017720;28;20033;-75
2022/07/14 08:55:00;;;;;;;4.38;1.60;;;33.10;31.30;;;;;;5020697;28;20029;-71
2022/07/14 08:57:26;;;;;;;11.93;1.65;;;33.30;31.10;;;;;;5020870;28;20654;-72
2022/07/14 08:59:52;;;;;;;5.15;1.52;;;33.50;30.60;;;;;;5020741;28;20025;-71
2022/07/14 09:02:18;;;;;;;4.88;1.50;;;33.80;30.20;;;;;;5028712;28;20538;-72
2022/07/14 09:04:45;;;;;;;6.13;1.60;;;33.90;29.90;;;;;;5022209;28;20021;-71
2022/07/14 09:07:28;;;;;;;8.35;1.50;;;34.00;29.60;;;;;;5022916;28;20468;-71
2022/07/14 09:10:01;;;;;;;4.13;1.38;;;34.40;29.40;;;;;;5019881;28;20021;-72
2022/07/14 09:12:30;;;;;;;4.55;1.50;;;34.80;28.50;;;;;;5029943;28;20061;-73
2022/07/14 09:17:55;;;;;;;6.45;1.42;;;35.00;28.00;;;;;;5033118;28;20078;-74
2022/07/14 09:20:23;;;;;;;6.60;1.77;;;35.20;28.00;;;;;;5030181;28;20022;-74
2022/07/14 09:22:54;;;;;;;5.05;1.40;;;35.60;27.60;;;;;;5030182;28;20029;-81
2022/07/14 09:25:20;;;;;;;7.70;1.63;;;36.20;26.90;;;;;;5025180;28;20030;-73
2022/07/14 09:27:47;;;;;;;9.30;1.73;;;36.90;25.80;;;;;;5020723;28;20033;-72
2022/07/14 09:30:14;;;;;;;5.18;1.30;;;37.80;24.60;;;;;;5023136;28;20021;-75
2022/07/14 09:33:05;;;;;;;4.18;1.35;;;38.50;23.90;;;;;;5028353;28;20037;-74
2022/07/14 09:35:34;;;;;;;5.07;1.40;;;39.00;23.30;;;;;;5022171;28;20034;-74
2022/07/14 09:38:13;;;;;;;8.68;1.65;;;39.40;22.60;;;;;;5026937;28;20037;-76
2022/07/14 09:40:39;;;;;;;11.93;1.55;;;39.80;22.00;;;;;;5031575;28;20508;-73
2022/07/14 09:43:08;;;;;;;4.68;1.40;;;40.60;21.50;;;;;;5028217;28;20108;-73
2022/07/14 09:45:36;;;;;;;6.18;1.42;;;41.30;20.60;;;;;;5019906;28;20086;-72
2022/07/14 09:48:06;;;;;;;6.03;1.50;;;41.60;21.20;;;;;;5022071;28;20026;-72
2022/07/14 09:50:33;;;;;;;4.35;1.30;;;40.90;21.00;;;;;;5027229;28;21000;-74
2022/07/14 09:52:59;;;;;;;4.32;1.17;;;40.10;21.70;;;;;;5028350;28;20629;-73
2022/07/14 09:55:24;;;;;;;3.85;1.20;;;40.40;21.30;;;;;;5020633;28;20120;-75
2022/07/14 09:57:52;;;;;;;11.80;1.60;;;40.80;20.80;;;;;;5022223;28;20036;-73
2022/07/14 10:00:19;;;;;;;8.52;1.20;;;41.10;20.50;;;;;;5022639;28;20025;-74
2022/07/14 10:02:46;;;;;;;4.85;1.35;;;41.60;20.00;;;;;;5021727;28;20048;-79
2022/07/14 10:05:13;;;;;;;7.57;1.30;;;42.30;19.40;;;;;;5020457;28;20053;-76
2022/07/14 10:07:41;;;;;;;4.50;1.13;;;43.10;18.70;;;;;;5022349;28;20033;-75
2022/07/14 10:10:08;;;;;;;4.85;1.25;;;43.10;18.60;;;;;;5022811;28;20056;-75
2022/07/14 10:12:36;;;;;;;11.50;1.52;;;43.10;18.80;;;;;;5015543;28;20042;-75
2022/07/14 10:15:04;;;;;;;12.20;1.70;;;43.70;18.20;;;;;;5020411;28;20088;-77
2022/07/14 10:17:34;;;;;;;13.23;1.90;;;44.20;17.90;;;;;;5022492;28;20045;-78
2022/07/14 10:20:01;;;;;;;8.98;1.90;;;44.70;17.50;;;;;;5023069;28;20762;-80
2022/07/14 10:22:29;;;;;;;5.03;1.38;;;45.20;17.10;;;;;;5023238;28;20021;-81
2022/07/14 10:24:55;;;;;;;6.45;1.33;;;45.50;16.50;;;;;;5020679;28;20026;-78
2022/07/14 10:27:21;;;;;;;6.22;1.40;;;45.60;16.80;;;;;;5020061;28;20030;-74
2022/07/14 10:29:57;;;;;;;6.55;1.50;;;46.10;16.50;;;;;;5020346;28;20042;-74
2022/07/14 10:32:29;;;;;;;5.47;1.20;;;46.70;16.10;;;;;;5016240;28;20104;-77
2022/07/14 10:35:16;;;;;;;8.77;1.38;;;46.50;15.90;;;;;;5024559;28;20041;-73
2022/07/14 10:38:09;;;;;;;7.38;1.30;;;46.40;15.70;;;;;;5023199;28;20029;-75
2022/07/14 10:41:22;;;;;;;6.53;1.17;;;45.90;16.00;;;;;;5020201;28;20040;-77
2022/07/14 10:44:06;;;;;;;4.45;1.30;;;46.40;15.70;;;;;;5019255;28;20612;-78
2022/07/14 10:46:38;;;;;;;5.00;1.13;;;46.90;14.90;;;;;;5029629;28;20184;-77
2022/07/14 10:49:06;;;;;;;5.20;1.30;;;47.20;14.70;;;;;;5036408;28;21055;-74
2022/07/14 10:51:33;;;;;;;4.63;1.10;;;47.00;14.70;;;;;;5037986;28;20144;-77
2022/07/14 10:53:59;;;;;;;3.90;1.17;;;47.30;14.60;;;;;;5036573;28;20057;-80
2022/07/14 10:56:27;;;;;;;7.28;1.00;;;47.60;14.60;;;;;;5034839;28;20037;-80
2022/07/14 10:59:26;;;;;;;10.82;1.42;;;47.30;14.70;;;;;;5034694;28;20029;-74
2022/07/14 11:02:11;;;;;;;13.90;1.42;;;45.90;15.70;;;;;;5035086;28;20048;-73
2022/07/14 11:04:58;;;;;;;9.57;1.50;;;44.00;17.00;;;;;;5036758;28;20393;-76
2022/07/14 11:07:36;;;;;;;7.40;1.30;;;43.30;17.40;;;;;;5035094;28;20593;-74
2022/07/14 11:10:04;;;;;;;6.80;1.90;;;42.50;18.00;;;;;;5033553;28;20110;-78
2022/07/14 11:12:31;;;;;;;5.87;1.30;;;42.30;18.40;;;;;;5012123;28;20037;-78
2022/07/14 11:14:58;;;;;;;5.72;1.20;;;42.90;18.00;;;;;;5009885;28;20567;-78
2022/07/14 11:17:32;;;;;;;726.58;382.95;;;42.60;18.30;;;;;;5017542;28;20123;-78
2022/07/14 11:19:58;;;;;;;41.53;37.35;;;41.50;18.90;;;;;;5024902;28;20925;-77
2022/07/14 11:22:25;;;;;;;49.38;44.08;;;42.20;18.00;;;;;;5020699;28;20037;-79
2022/07/14 11:24:59;;;;;;;17.10;12.27;;;43.00;17.10;;;;;;5022229;28;20083;-79
2022/07/14 11:27:27;;;;;;;22.20;16.17;;;43.70;16.90;;;;;;5025262;28;20021;-78
2022/07/14 11:29:53;;;;;;;18.95;9.57;;;44.00;16.50;;;;;;5018838;28;20472;-78
2022/07/14 11:32:31;;;;;;;15.02;5.45;;;44.70;16.00;;;;;;5027001;28;20057;-76
2022/07/14 11:38:20;;;;;;;4.47;1.35;;;45.80;15.50;;;;;;5019249;28;20064;-79
2022/07/14 11:40:54;;;;;;;6.88;1.85;;;46.20;15.10;;;;;;5026073;28;20081;-75
2022/07/14 11:43:28;;;;;;;10.98;4.60;;;46.70;14.80;;;;;;5021196;28;20037;-75
2022/07/14 11:46:03;;;;;;;9.85;6.45;;;47.10;14.20;;;;;;5021342;28;20033;-76
2022/07/14 11:48:36;;;;;;;196.68;121.93;;;47.00;14.20;;;;;;5020743;28;20029;-74
2022/07/14 11:51:06;;;;;;;23.70;19.85;;;47.50;13.80;;;;;;5023835;28;20064;-81
2022/07/14 11:53:34;;;;;;;36.45;32.85;;;47.90;13.40;;;;;;5022702;28;20049;-77
2022/07/14 11:56:00;;;;;;;7.97;1.50;;;48.20;13.30;;;;;;5022862;28;20043;-73
2022/07/14 11:58:28;;;;;;;8.10;2.10;;;48.30;13.00;;;;;;5026787;28;20044;-77
2022/07/14 12:00:59;;;;;;;10.30;5.78;;;48.40;12.90;;;;;;5019084;28;20029;-76
2022/07/14 12:03:25;;;;;;;27.85;24.13;;;48.50;12.80;;;;;;5020701;28;20049;-75
2022/07/14 12:05:55;;;;;;;12.80;9.68;;;48.60;12.90;;;;;;5019303;28;20033;-77
2022/07/14 12:08:30;;;;;;;28.85;24.80;;;48.70;13.10;;;;;;5022379;28;20370;-77
2022/07/14 12:11:22;;;;;;;22.58;20.23;;;48.60;13.20;;;;;;5022633;28;20021;-77
2022/07/14 12:13:53;;;;;;;43.25;31.73;;;48.60;13.00;;;;;;5019825;28;20136;-76
2022/07/14 12:16:20;;;;;;;17.23;13.40;;;48.60;12.80;;;;;;5014134;28;20017;-77
2022/07/14 12:18:45;;;;;;;16.35;10.70;;;48.80;12.60;;;;;;5022111;28;20489;-78
2022/07/14 12:21:12;;;;;;;49.55;38.63;;;48.90;12.50;;;;;;5025894;28;20033;-76
2022/07/14 12:23:57;;;;;;;64.75;55.47;;;49.00;12.30;;;;;;5017307;28;20018;-79
2022/07/14 12:26:25;;;;;;;17.98;11.68;;;49.00;12.20;;;;;;5023074;28;20029;-74
2022/07/14 12:28:53;;;;;;;22.35;15.80;;;48.90;12.00;;;;;;5034878;28;20029;-76
2022/07/14 12:31:19;;;;;;;26.13;11.43;;;49.00;12.00;;;;;;5023890;28;20025;-76
2022/07/14 12:33:46;;;;;;;38.75;28.08;;;49.00;12.10;;;;;;5019627;28;20076;-76
2022/07/14 12:36:18;;;;;;;34.17;20.90;;;49.00;12.20;;;;;;5021047;28;20029;-76
2022/07/14 12:38:45;;;;;;;71.50;60.65;;;48.90;12.40;;;;;;5019325;28;20030;-76
2022/07/14 12:41:13;;;;;;;51.08;42.05;;;48.70;12.50;;;;;;5021499;28;20113;-77
2022/07/14 12:43:41;;;;;;;29.60;24.73;;;48.50;12.60;;;;;;5022988;28;20542;-75
2022/07/14 12:46:08;;;;;;;102.93;70.05;;;48.50;12.50;;;;;;5022329;28;20057;-76
2022/07/14 12:48:58;;;;;;;127.10;89.00;;;48.60;12.40;;;;;;5031471;28;20038;-74
2022/07/14 12:51:33;;;;;;;114.18;101.63;;;48.70;12.20;;;;;;5023121;28;20081;-77
2022/07/14 12:54:15;;;;;;;395.27;282.40;;;48.70;12.10;;;;;;5021247;28;20040;-78
2022/07/14 12:56:41;;;;;;;307.42;212.25;;;48.80;12.10;;;;;;5030100;28;20064;-77
2022/07/14 12:59:10;;;;;;;266.27;186.18;;;48.70;11.60;;;;;;5029659;28;20467;-77